Time;durP1;ratioP1;P1;durP2;ratioP2;P2;SDS_P1;SDS_P2;PMS_P1;PMS_P2;Temp;Humidity;BMP_temperature;BMP_pressure;BME280_temperature;BME280_humidity;BME280_pressure;Samples;Min_cycle;Max_cycle;Signal;HPM_P1;HPM_P2
2022/09/07 00:58:49;;;;;;;4.15;3.50;;;;;;;;;;6270200;22;20434;-72
2022/09/07 01:01:16;;;;;;;8.98;3.67;;;;;;;;;;6274731;22;20008;-73
2022/09/07 01:03:44;;;;;;;7.57;3.65;;;;;;;;;;6274672;22;20007;-72
2022/09/07 01:06:10;;;;;;;9.73;4.03;;;;;;;;;;6277506;22;20004;-72
2022/09/07 01:08:36;;;;;;;7.72;3.65;;;25.30;65.00;;;;;;6277946;22;20012;-72
2022/09/07 01:11:03;;;;;;;8.25;3.58;;;24.20;68.60;;;;;;6277507;22;20045;-72
2022/09/07 01:13:29;;;;;;;5.25;3.28;;;24.20;69.80;;;;;;6277627;22;20003;-72
2022/09/07 01:16:09;;;;;;;8.27;3.58;;;24.10;70.20;;;;;;6277802;22;19999;-72
2022/09/07 01:18:44;;;;;;;6.43;3.50;;;24.10;70.70;;;;;;6277595;22;20101;-72
2022/09/07 01:21:26;;;;;;;6.90;3.42;;;24.10;70.70;;;;;;6277563;22;19999;-72
2022/09/07 01:24:42;;;;;;;3.75;3.05;;;24.20;70.50;;;;;;6277991;22;20030;-73
2022/09/07 01:27:29;;;;;;;11.27;3.38;;;24.20;70.30;;;;;;6214434;22;20019;-77
2022/09/07 01:30:10;;;;;;;10.80;3.55;;;24.30;70.30;;;;;;6278238;22;20004;-72
2022/09/07 01:32:38;;;;;;;4.65;3.15;;;24.30;70.50;;;;;;6277718;22;20004;-73
2022/09/07 01:35:12;;;;;;;6.13;3.42;;;24.30;70.60;;;;;;6277551;22;20030;-72
2022/09/07 01:38:07;;;;;;;5.70;3.15;;;24.30;70.80;;;;;;6277898;22;20014;-72
2022/09/07 01:40:45;;;;;;;7.90;3.70;;;24.30;70.80;;;;;;6263792;22;20035;-72
2022/09/07 01:43:17;;;;;;;10.60;3.13;;;24.30;70.80;;;;;;6278027;22;20067;-72
2022/09/07 01:45:45;;;;;;;12.32;3.40;;;24.30;70.80;;;;;;6277395;22;20004;-72
2022/09/07 01:48:16;;;;;;;8.75;3.38;;;24.30;70.40;;;;;;6277548;22;20019;-72
2022/09/07 01:50:52;;;;;;;7.60;3.75;;;24.30;69.50;;;;;;6277575;22;19996;-72
2022/09/07 01:53:35;;;;;;;5.85;3.83;;;24.20;69.10;;;;;;6277808;22;20053;-72
2022/09/07 01:56:12;;;;;;;8.05;4.40;;;24.20;68.50;;;;;;6277696;22;20003;-72
2022/09/07 01:58:38;;;;;;;7.15;4.03;;;24.20;68.20;;;;;;6277233;22;20449;-73
2022/09/07 02:01:24;;;;;;;4.93;3.50;;;24.10;68.20;;;;;;6277766;22;20022;-79
2022/09/07 02:03:56;;;;;;;8.57;3.95;;;24.00;68.20;;;;;;6277662;22;19996;-72
2022/09/07 02:06:32;;;;;;;7.65;3.92;;;24.00;68.20;;;;;;6277291;22;20050;-72
2022/09/07 02:09:12;;;;;;;9.40;4.13;;;24.00;68.30;;;;;;6277256;22;20099;-72
2022/09/07 02:11:41;;;;;;;10.90;3.80;;;23.90;68.20;;;;;;6277649;22;20035;-72
2022/09/07 02:14:13;;;;;;;8.38;3.97;;;23.90;68.30;;;;;;6277403;22;20007;-72
2022/09/07 02:16:57;;;;;;;6.38;3.72;;;23.90;68.50;;;;;;6277341;22;20057;-72
2022/09/07 02:19:25;;;;;;;9.98;3.90;;;23.80;68.30;;;;;;6277082;22;20006;-72
2022/09/07 02:21:59;;;;;;;17.10;4.97;;;23.80;68.50;;;;;;6277021;22;20004;-76
2022/09/07 02:24:48;;;;;;;10.20;4.00;;;23.80;68.70;;;;;;6277491;22;20487;-72
2022/09/07 02:27:18;;;;;;;7.03;4.18;;;23.80;68.80;;;;;;6275876;22;20015;-72
2022/09/07 02:29:43;;;;;;;6.35;4.18;;;23.80;68.90;;;;;;6276889;22;20031;-72
2022/09/07 02:32:09;;;;;;;7.07;4.63;;;23.70;68.70;;;;;;6277194;22;20023;-72
2022/09/07 02:34:35;;;;;;;8.27;4.10;;;23.70;68.70;;;;;;6249781;22;20012;-72
2022/09/07 02:37:05;;;;;;;7.78;3.53;;;23.70;68.80;;;;;;6276950;22;20000;-72
2022/09/07 02:39:31;;;;;;;8.77;4.28;;;23.70;68.80;;;;;;6277170;22;20073;-72
2022/09/07 02:41:57;;;;;;;15.23;4.95;;;23.70;69.00;;;;;;6277147;22;20418;-72
2022/09/07 02:44:27;;;;;;;5.75;4.35;;;23.70;68.90;;;;;;6277086;22;19996;-72
2022/09/07 02:47:10;;;;;;;6.55;4.22;;;23.60;68.90;;;;;;6276989;22;20027;-73
2022/09/07 02:50:00;;;;;;;8.15;3.88;;;23.60;69.00;;;;;;6277238;22;20511;-72
2022/09/07 02:52:36;;;;;;;10.27;4.50;;;23.60;69.10;;;;;;6277148;22;20057;-72
2022/09/07 02:55:13;;;;;;;4.45;3.53;;;23.60;69.30;;;;;;6276964;22;19999;-72
2022/09/07 02:58:00;;;;;;;6.50;3.70;;;23.60;69.50;;;;;;6277017;22;19999;-72
2022/09/07 03:00:30;;;;;;;4.50;3.95;;;23.60;69.70;;;;;;6276961;22;20019;-72
2022/09/07 03:03:19;;;;;;;5.97;4.07;;;23.60;69.90;;;;;;6277129;22;20003;-72
2022/09/07 03:06:03;;;;;;;8.02;3.88;;;23.60;70.10;;;;;;6276758;22;20480;-72
2022/09/07 03:08:39;;;;;;;6.80;4.15;;;23.60;70.10;;;;;;6276500;22;20015;-72
2022/09/07 03:11:06;;;;;;;9.00;4.03;;;23.60;70.30;;;;;;6276812;22;20509;-72
2022/09/07 03:13:32;;;;;;;7.65;3.75;;;23.60;70.40;;;;;;6277044;22;20000;-72
2022/09/07 03:15:58;;;;;;;10.85;4.13;;;23.60;70.60;;;;;;6276532;22;20011;-72
2022/09/07 03:18:25;;;;;;;3.95;3.55;;;23.60;70.80;;;;;;6277002;22;20004;-72
2022/09/07 03:20:52;;;;;;;7.03;3.80;;;23.60;70.80;;;;;;6276341;22;19996;-72
2022/09/07 03:23:17;;;;;;;8.77;3.90;;;23.60;70.70;;;;;;6276891;22;20027;-72
2022/09/07 03:25:43;;;;;;;6.90;3.88;;;23.50;70.90;;;;;;6276727;22;19996;-72
2022/09/07 03:28:09;;;;;;;6.57;3.80;;;23.50;71.00;;;;;;6276348;22;20023;-72
2022/09/07 03:30:35;;;;;;;7.47;4.38;;;23.50;71.10;;;;;;6277051;22;20008;-72
2022/09/07 03:33:01;;;;;;;5.65;4.07;;;23.50;71.00;;;;;;6276536;22;20000;-72
2022/09/07 03:35:27;;;;;;;6.72;3.70;;;23.50;71.10;;;;;;6276374;22;20004;-72
2022/09/07 03:37:52;;;;;;;10.73;4.07;;;23.50;71.20;;;;;;6276414;22;20051;-72
2022/09/07 03:40:18;;;;;;;6.20;3.80;;;23.50;71.40;;;;;;6276862;22;20014;-72
2022/09/07 03:42:48;;;;;;;9.68;3.80;;;23.50;71.50;;;;;;6276716;22;20418;-72
2022/09/07 03:45:14;;;;;;;6.47;3.70;;;23.50;71.70;;;;;;6276353;22;19999;-72
2022/09/07 03:47:40;;;;;;;6.22;3.50;;;23.50;71.70;;;;;;6276962;22;20062;-72
2022/09/07 03:50:06;;;;;;;8.93;4.07;;;23.50;71.60;;;;;;6276269;22;20000;-72
2022/09/07 03:52:33;;;;;;;6.57;3.65;;;23.40;71.50;;;;;;6276354;22;20430;-72
2022/09/07 03:54:59;;;;;;;6.32;3.65;;;23.40;71.60;;;;;;6276518;22;20073;-72
2022/09/07 03:57:25;;;;;;;11.07;4.05;;;23.40;71.60;;;;;;6276532;22;20003;-72
2022/09/07 03:59:51;;;;;;;7.78;4.15;;;23.40;71.30;;;;;;6276132;22;20022;-72
2022/09/07 04:02:17;;;;;;;11.00;4.03;;;23.40;71.30;;;;;;6276923;22;20007;-72
2022/09/07 04:04:44;;;;;;;7.38;4.30;;;23.40;71.30;;;;;;6276803;22;20004;-74
2022/09/07 04:07:10;;;;;;;6.78;3.83;;;23.40;71.40;;;;;;6276109;22;20008;-73
2022/09/07 04:09:36;;;;;;;7.25;4.03;;;23.40;71.50;;;;;;6276559;22;20007;-72
2022/09/07 04:12:02;;;;;;;11.38;3.95;;;23.40;71.60;;;;;;6276495;22;20003;-72
2022/09/07 04:14:28;;;;;;;6.05;4.15;;;23.40;71.70;;;;;;6276382;22;20071;-72
2022/09/07 04:16:53;;;;;;;6.55;4.57;;;23.40;71.90;;;;;;6276633;22;20038;-72
2022/09/07 04:19:19;;;;;;;5.40;3.47;;;23.40;71.80;;;;;;6276358;22;20418;-72
2022/09/07 04:21:46;;;;;;;7.65;4.00;;;;;;;;;;6276526;22;20034;-72
2022/09/07 04:24:15;;;;;;;7.22;3.70;;;;;;;;;;6276519;22;20093;-72
2022/09/07 04:26:42;;;;;;;7.72;4.00;;;23.30;71.80;;;;;;6276368;22;20003;-72
2022/09/07 04:29:09;;;;;;;8.52;3.97;;;23.40;72.30;;;;;;6276317;22;20007;-72
2022/09/07 04:31:35;;;;;;;5.78;3.95;;;23.30;72.10;;;;;;6276253;22;20049;-72
2022/09/07 04:34:02;;;;;;;5.40;3.63;;;23.40;72.00;;;;;;6249006;22;20062;-72
2022/09/07 04:36:28;;;;;;;7.03;4.30;;;23.40;72.00;;;;;;6276303;22;20019;-72
2022/09/07 04:38:58;;;;;;;6.25;4.03;;;23.40;72.10;;;;;;6276243;22;19995;-72
2022/09/07 04:41:25;;;;;;;6.40;4.15;;;23.40;72.40;;;;;;6276345;22;20326;-72
2022/09/07 04:43:56;;;;;;;10.27;4.38;;;23.40;72.30;;;;;;6275917;22;20000;-76
2022/09/07 04:46:28;;;;;;;8.67;4.37;;;23.40;71.80;;;;;;6275443;22;20031;-73
2022/09/07 04:48:59;;;;;;;7.60;4.38;;;23.40;72.20;;;;;;6275987;22;20019;-72
2022/09/07 04:51:26;;;;;;;12.77;4.72;;;;;;;;;;6276665;22;20004;-78
2022/09/07 04:53:54;;;;;;;13.50;4.90;;;;;;;;;;6276133;22;20004;-72
2022/09/07 04:56:20;;;;;;;15.35;4.82;;;;;;;;;;6275976;22;20000;-72
2022/09/07 04:58:46;;;;;;;8.70;4.65;;;;;;;;;;6275739;22;20008;-72
2022/09/07 05:01:14;;;;;;;13.05;5.00;;;;;;;;;;6275587;22;20049;-72
2022/09/07 05:03:40;;;;;;;18.05;5.85;;;;;;;;;;6275897;22;20414;-72
2022/09/07 05:06:07;;;;;;;12.40;5.45;;;;;;;;;;6275960;22;20322;-71
2022/09/07 05:08:44;;;;;;;19.67;5.93;;;;;;;;;;6275750;22;20007;-71
2022/09/07 05:11:11;;;;;;;16.48;5.55;;;;;;;;;;6275402;22;20000;-72
2022/09/07 05:13:37;;;;;;;18.38;5.80;;;;;;;;;;6275614;22;20006;-72
2022/09/07 05:16:16;;;;;;;16.90;5.53;;;;;;;;;;6275978;22;20024;-72
2022/09/07 05:18:42;;;;;;;13.52;5.70;;;;;;;;;;6275952;22;20000;-72
2022/09/07 05:21:10;;;;;;;12.07;5.57;;;;;;;;;;6275906;22;20000;-72
2022/09/07 05:23:36;;;;;;;16.17;6.90;;;;;;;;;;6275882;22;20004;-72
2022/09/07 05:26:03;;;;;;;20.48;6.82;;;;;;;;;;6276228;22;20007;-72
2022/09/07 05:28:29;;;;;;;13.68;6.60;;;;;;;;;;6275711;22;20503;-71
2022/09/07 05:30:55;;;;;;;9.02;5.97;;;;;;;;;;6276049;22;20000;-72
2022/09/07 05:33:21;;;;;;;15.40;6.75;;;;;;;;;;6275857;22;20322;-74
2022/09/07 05:35:55;;;;;;;11.93;6.30;;;;;;;;;;6276917;22;20000;-79
2022/09/07 05:38:21;;;;;;;12.52;6.20;;;;;;;;;;6277619;22;20473;-71
2022/09/07 05:40:47;;;;;;;14.30;6.68;;;;;;;;;;6278094;22;19996;-70
2022/09/07 05:43:13;;;;;;;8.25;6.10;;;;;;;;;;6277256;22;20011;-70
2022/09/07 05:45:39;;;;;;;11.73;6.13;;;;;;;;;;6277422;22;20007;-71
2022/09/07 05:48:05;;;;;;;9.50;6.50;;;;;;;;;;6277474;22;20012;-71
2022/09/07 05:50:31;;;;;;;7.93;6.28;;;;;;;;;;6278933;22;20438;-70
2022/09/07 05:52:58;;;;;;;10.63;6.63;;;;;;;;;;6277719;22;20007;-71
2022/09/07 05:55:24;;;;;;;13.95;6.80;;;;;;;;;;6277923;22;20307;-70
2022/09/07 05:57:50;;;;;;;11.65;6.82;;;;;;;;;;6277467;22;20450;-70
2022/09/07 06:00:16;;;;;;;13.45;6.60;;;;;;;;;;6277156;22;20026;-70
2022/09/07 06:02:42;;;;;;;13.13;6.82;;;;;;;;;;6277271;22;20003;-70
2022/09/07 06:05:10;;;;;;;22.77;9.77;;;;;;;;;;6277226;22;19995;-70
2022/09/07 06:07:36;;;;;;;30.13;9.95;;;;;;;;;;6277041;22;20011;-70
2022/09/07 06:10:02;;;;;;;13.43;8.27;;;;;;;;;;6277745;22;20014;-70
2022/09/07 06:12:28;;;;;;;11.65;7.38;;;;;;;;;;6276773;22;20000;-70
2022/09/07 06:14:54;;;;;;;17.15;7.80;;;;;;;;;;6277115;22;20004;-70
2022/09/07 06:17:20;;;;;;;16.20;7.20;;;;;;;;;;6277291;22;20004;-70
2022/09/07 06:19:46;;;;;;;11.68;8.10;;;;;;;;;;6277334;22;19996;-70
2022/09/07 06:22:12;;;;;;;16.42;8.40;;;;;;;;;;6277337;22;20003;-70
2022/09/07 06:24:38;;;;;;;18.40;8.02;;;;;;;;;;6277318;22;20038;-70
2022/09/07 06:27:04;;;;;;;18.17;9.68;;;;;;;;;;6277104;22;20007;-71
2022/09/07 06:29:30;;;;;;;17.15;8.70;;;;;;;;;;6277192;22;20004;-70
2022/09/07 06:31:56;;;;;;;16.48;8.70;;;;;;;;;;6277198;22;20321;-80
2022/09/07 06:34:23;;;;;;;14.35;7.90;;;;;;;;;;6277586;22;20003;-70
2022/09/07 06:36:49;;;;;;;12.95;7.82;;;;;;;;;;6276728;22;20007;-71
2022/09/07 06:39:15;;;;;;;14.52;8.40;;;;;;;;;;6277253;22;20000;-72
2022/09/07 06:41:41;;;;;;;15.57;7.60;;;;;;;;;;6276875;22;20438;-71
2022/09/07 06:44:07;;;;;;;11.93;7.93;;;;;;;;;;6277044;22;20002;-71
2022/09/07 06:46:33;;;;;;;19.15;7.55;;;;;;;;;;6277298;22;20475;-72
2022/09/07 06:48:59;;;;;;;15.68;7.15;;;;;;;;;;6276982;22;20015;-73
2022/09/07 06:51:25;;;;;;;16.50;7.95;;;;;;;;;;6276740;22;20004;-73
2022/09/07 06:53:52;;;;;;;11.52;7.90;;;;;;;;;;6276842;22;20422;-73
2022/09/07 06:56:18;;;;;;;11.77;7.75;;;;;;;;;;6276802;22;20067;-71
2022/09/07 06:58:45;;;;;;;9.60;7.30;;;;;;;;;;6276767;22;20335;-70
2022/09/07 07:01:16;;;;;;;9.95;8.02;;;;;;;;;;6276904;22;20035;-71
2022/09/07 07:03:42;;;;;;;16.40;7.82;;;;;;;;;;6277073;22;20031;-72
2022/09/07 07:06:08;;;;;;;12.32;8.13;;;;;;;;;;6277040;22;20378;-71
2022/09/07 07:08:35;;;;;;;11.10;8.30;;;;;;;;;;6276108;22;20016;-72
2022/09/07 07:11:06;;;;;;;10.75;9.13;;;;;;;;;;6277185;22;20058;-71
2022/09/07 07:13:33;;;;;;;14.48;7.40;;;;;;;;;;6276962;22;20038;-71
2022/09/07 07:16:06;;;;;;;10.30;8.50;;;;;;;;;;6276458;22;20000;-71
2022/09/07 07:18:33;;;;;;;13.60;8.63;;;;;;;;;;6276391;22;19999;-71
2022/09/07 07:21:04;;;;;;;10.95;8.82;;;;;;;;;;6276367;22;20330;-77
2022/09/07 07:23:30;;;;;;;15.45;9.25;;;;;;;;;;6276095;22;20000;-78
2022/09/07 07:26:00;;;;;;;11.25;8.70;;;;;;;;;;6276969;22;20003;-76
2022/09/07 07:28:27;;;;;;;14.30;9.43;;;;;;;;;;6276677;22;20019;-78
2022/09/07 07:30:56;;;;;;;9.35;8.43;;;;;;;;;;6276294;22;20007;-77
2022/09/07 07:33:23;;;;;;;11.77;9.48;;;;;;;;;;6276422;22;20079;-72
2022/09/07 07:35:49;;;;;;;15.68;9.27;;;;;;;;;;6276292;22;20021;-77
2022/09/07 07:38:15;;;;;;;13.38;9.68;;;;;;;;;;6276427;22;20003;-72
2022/09/07 07:40:41;;;;;;;16.23;9.85;;;;;;;;;;6276250;22;20021;-77
2022/09/07 07:43:07;;;;;;;14.23;8.85;;;;;;;;;;6276469;22;20000;-72
2022/09/07 07:45:33;;;;;;;15.30;8.70;;;;;;;;;;6276354;22;20044;-78
2022/09/07 07:47:59;;;;;;;13.95;9.25;;;;;;;;;;6276057;22;20012;-78
2022/09/07 07:50:25;;;;;;;14.05;8.55;;;;;;;;;;6276718;22;20008;-71
2022/09/07 07:52:51;;;;;;;10.57;8.68;;;;;;;;;;6276517;22;20000;-71
2022/09/07 07:55:17;;;;;;;14.65;8.57;;;;;;;;;;6249340;22;20383;-72
2022/09/07 07:57:43;;;;;;;14.20;7.88;;;;;;;;;;6276504;22;20034;-71
2022/09/07 08:00:10;;;;;;;8.80;7.88;;;;;;;;;;6276329;22;20019;-71
2022/09/07 08:02:36;;;;;;;12.15;7.25;;;;;;;;;;6276630;22;20004;-71
2022/09/07 08:05:02;;;;;;;9.63;8.15;;;;;;;;;;6276474;22;20008;-78
2022/09/07 08:07:28;;;;;;;10.45;7.78;;;;;;;;;;6276062;22;20441;-72
2022/09/07 08:09:54;;;;;;;14.63;7.35;;;;;;;;;;6276464;22;20010;-71
2022/09/07 08:12:20;;;;;;;13.30;7.30;;;;;;;;;;6276597;22;20075;-71
2022/09/07 08:14:47;;;;;;;10.63;8.02;;;;;;;;;;6276614;22;20004;-72
2022/09/07 08:17:14;;;;;;;9.48;7.45;;;;;;;;;;6276187;22;20007;-72
2022/09/07 08:19:41;;;;;;;12.73;8.88;;;;;;;;;;6275997;22;20004;-78
2022/09/07 08:22:07;;;;;;;11.32;8.30;;;;;;;;;;6276559;22;20004;-78
2022/09/07 08:24:33;;;;;;;9.85;8.48;;;;;;;;;;6276352;22;20047;-72
2022/09/07 08:27:00;;;;;;;15.13;7.28;;;;;;;;;;6275920;22;20359;-72
2022/09/07 08:29:27;;;;;;;10.93;7.57;;;;;;;;;;6276282;22;20003;-74
2022/09/07 08:31:53;;;;;;;9.82;8.57;;;;;;;;;;6276158;22;20004;-79
2022/09/07 08:34:20;;;;;;;10.73;8.93;;;;;;;;;;6276423;22;19999;-79
2022/09/07 08:36:46;;;;;;;9.82;8.23;;;;;;;;;;6275978;22;20434;-73
2022/09/07 08:39:12;;;;;;;13.10;8.48;;;;;;;;;;6275910;22;19999;-73
2022/09/07 08:41:45;;;;;;;10.15;8.25;;;;;;;;;;6275497;22;20075;-71
2022/09/07 08:44:30;;;;;;;11.68;8.48;;;;;;;;;;6276275;22;20008;-73
2022/09/07 08:46:56;;;;;;;12.90;9.13;;;;;;;;;;6275811;22;20326;-71
2022/09/07 08:49:42;;;;;;;26.17;9.73;;;;;;;;;;6276404;22;20008;-78
2022/09/07 08:52:10;;;;;;;83.57;11.77;;;;;;;;;;6275403;22;20004;-72
2022/09/07 08:54:37;;;;;;;11.75;7.97;;;;;;;;;;6276089;22;20003;-72
2022/09/07 08:57:03;;;;;;;9.48;7.38;;;;;;;;;;6276085;22;20426;-80
2022/09/07 08:59:39;;;;;;;8.32;6.88;;;;;;;;;;6276344;22;20342;-71
2022/09/07 09:02:10;;;;;;;8.85;7.47;;;;;;;;;;6275994;22;20000;-71
2022/09/07 09:04:35;;;;;;;10.63;7.40;;;23.40;72.60;;;;;;6275956;22;20443;-73
2022/09/07 09:07:09;;;;;;;11.32;7.20;;;24.00;86.30;;;;;;6276195;22;20007;-72
2022/09/07 09:09:50;;;;;;;7.78;6.97;;;24.00;86.80;;;;;;6276314;22;20075;-72
2022/09/07 09:12:37;;;;;;;10.55;7.28;;;24.00;86.40;;;;;;6277845;22;20000;-72
2022/09/07 09:15:34;;;;;;;17.42;8.25;;;24.00;86.30;;;;;;6277970;22;20004;-72
2022/09/07 09:18:12;;;;;;;9.02;7.80;;;24.10;86.30;;;;;;6278091;22;20437;-72
2022/09/07 09:20:50;;;;;;;9.23;8.32;;;24.10;86.30;;;;;;6278676;22;20374;-72
2022/09/07 09:23:19;;;;;;;11.18;8.60;;;24.10;85.80;;;;;;6278083;22;20019;-71
2022/09/07 09:25:59;;;;;;;14.80;9.10;;;24.10;84.70;;;;;;6277856;22;20025;-73
2022/09/07 09:28:25;;;;;;;11.90;8.43;;;24.20;84.70;;;;;;6277548;22;20107;-74
2022/09/07 09:30:51;;;;;;;11.55;7.50;;;24.20;84.50;;;;;;6278472;22;20429;-72
2022/09/07 09:33:18;;;;;;;10.60;7.63;;;24.20;84.30;;;;;;6277779;22;20091;-72
2022/09/07 09:35:48;;;;;;;21.30;8.07;;;24.20;84.10;;;;;;6278020;22;20023;-72
2022/09/07 09:38:32;;;;;;;17.85;7.63;;;24.20;83.90;;;;;;6277400;22;20212;-72
2022/09/07 09:41:10;;;;;;;16.67;7.13;;;24.20;84.20;;;;;;6277668;22;20429;-72
2022/09/07 09:43:38;;;;;;;11.80;5.80;;;24.30;84.30;;;;;;6277592;22;20000;-72
2022/09/07 09:46:11;;;;;;;10.38;5.00;;;;;;;;;;6277587;22;20018;-73
2022/09/07 09:48:41;;;;;;;11.27;5.30;;;;;;;;;;6277567;22;20008;-72
2022/09/07 09:51:07;;;;;;;7.35;5.00;;;;;;;;;;6277961;22;20004;-73
2022/09/07 09:53:37;;;;;;;11.23;5.47;;;;;;;;;;6277645;22;20078;-73
2022/09/07 09:56:04;;;;;;;12.55;5.28;;;;;;;;;;6277712;22;20083;-73
2022/09/07 09:58:33;;;;;;;9.88;3.95;;;;;;;;;;6277230;22;20452;-73
2022/09/07 10:01:05;;;;;;;8.50;4.35;;;;;;;;;;6277655;22;20004;-73
2022/09/07 10:03:31;;;;;;;7.45;4.35;;;;;;;;;;6277375;22;20011;-73
2022/09/07 10:05:58;;;;;;;7.68;4.00;;;;;;;;;;6277420;22;20011;-73
2022/09/07 10:08:31;;;;;;;7.32;3.97;;;;;;;;;;6277458;22;20018;-73
2022/09/07 10:10:59;;;;;;;8.32;3.72;;;;;;;;;;6277483;22;20008;-76
2022/09/07 10:13:43;;;;;;;3.92;2.85;;;;;;;;;;6277406;22;20055;-72
2022/09/07 10:16:09;;;;;;;5.40;2.95;;;;;;;;;;6277013;22;20027;-74
2022/09/07 10:18:39;;;;;;;11.38;4.00;;;;;;;;;;6276969;22;20000;-75
2022/09/07 10:21:24;;;;;;;4.63;3.28;;;24.30;83.80;;;;;;6277342;22;20000;-73
2022/09/07 10:23:59;;;;;;;7.45;2.60;;;25.50;72.80;;;;;;6277189;22;20007;-72
2022/09/07 10:26:27;;;;;;;5.07;2.67;;;;;;;;;;6278163;22;20011;-73
2022/09/07 10:29:13;;;;;;;10.32;3.00;;;;;;;;;;6276906;22;20354;-73
2022/09/07 10:31:58;;;;;;;7.88;3.28;;;;;;;;;;6277000;22;20322;-73
2022/09/07 10:34:50;;;;;;;5.38;3.22;;;;;;;;;;6277215;22;19999;-73
2022/09/07 10:37:34;;;;;;;8.57;3.53;;;;;;;;;;6220139;22;20333;-73
2022/09/07 10:40:15;;;;;;;7.80;2.95;;;;;;;;;;6276981;22;20004;-73
2022/09/07 10:43:01;;;;;;;7.30;3.47;;;;;;;;;;6276907;22;20073;-74
2022/09/07 10:45:38;;;;;;;10.05;3.80;;;;;;;;;;6276900;22;19999;-76
2022/09/07 10:48:10;;;;;;;10.75;4.07;;;;;;;;;;6277124;22;20042;-74
2022/09/07 10:50:57;;;;;;;13.50;3.95;;;;;;;;;;6277266;22;20031;-74
2022/09/07 10:53:42;;;;;;;6.82;3.10;;;;;;;;;;6276861;22;20000;-74
2022/09/07 10:56:10;;;;;;;8.23;3.90;;;;;;;;;;6276815;22;20007;-74
2022/09/07 10:58:36;;;;;;;19.67;5.15;;;;;;;;;;6276616;22;20004;-75
2022/09/07 11:01:11;;;;;;;13.63;4.25;;;;;;;;;;6277778;22;20088;-74
2022/09/07 11:03:37;;;;;;;8.30;4.22;;;;;;;;;;6276862;22;20002;-75
2022/09/07 11:06:21;;;;;;;7.80;4.03;;;;;;;;;;6277085;22;20004;-74
2022/09/07 11:09:06;;;;;;;6.60;4.00;;;;;;;;;;6249991;22;20015;-74
2022/09/07 11:11:33;;;;;;;10.35;4.07;;;;;;;;;;6277398;22;20018;-75
2022/09/07 11:14:09;;;;;;;13.95;4.25;;;;;;;;;;6276933;22;20003;-75
2022/09/07 11:16:38;;;;;;;11.23;3.58;;;;;;;;;;6276680;22;20087;-73
2022/09/07 11:19:03;;;;;;;47.33;5.28;;;;;;;;;;6276859;22;20007;-75
2022/09/07 11:21:48;;;;;;;12.70;3.75;;;;;;;;;;6276616;22;20026;-73
2022/09/07 11:24:24;;;;;;;8.82;4.07;;;;;;;;;;6276806;22;20115;-75
2022/09/07 11:26:52;;;;;;;12.40;3.90;;;;;;;;;;6276861;22;20099;-74
2022/09/07 11:29:30;;;;;;;11.00;3.90;;;;;;;;;;6277198;22;20016;-74
2022/09/07 11:31:59;;;;;;;10.35;3.63;;;;;;;;;;6276619;22;20000;-74
2022/09/07 11:34:40;;;;;;;6.15;3.33;;;;;;;;;;6276472;22;20073;-73
2022/09/07 11:37:09;;;;;;;7.97;3.20;;;;;;;;;;6277129;22;20081;-74
2022/09/07 11:39:40;;;;;;;6.20;3.00;;;;;;;;;;6276690;22;20015;-74
2022/09/07 11:42:16;;;;;;;12.65;3.47;;;;;;;;;;6276790;22;19996;-73
2022/09/07 11:44:48;;;;;;;12.00;3.40;;;;;;;;;;6276532;22;20057;-73
2022/09/07 11:47:49;;;;;;;8.55;2.97;;;;;;;;;;6276656;22;20038;-73
2022/09/07 11:50:16;;;;;;;4.15;2.80;;;;;;;;;;6123802;23;20037;-74
2022/09/07 11:52:46;;;;;;;6.53;3.20;;;;;;;;;;6247175;22;20008;-74
2022/09/07 11:55:19;;;;;;;9.65;3.10;;;;;;;;;;6276343;22;20415;-71
2022/09/07 11:58:04;;;;;;;10.95;3.50;;;;;;;;;;6276683;22;20058;-72
2022/09/07 12:00:37;;;;;;;4.40;2.67;;;;;;;;;;6276106;22;20020;-78
2022/09/07 12:03:06;;;;;;;4.85;2.90;;;;;;;;;;6276238;22;19995;-73
2022/09/07 12:05:50;;;;;;;7.68;3.35;;;;;;;;;;6275214;22;20008;-76
2022/09/07 12:08:16;;;;;;;10.88;2.75;;;;;;;;;;6275341;22;20008;-73
2022/09/07 12:10:45;;;;;;;5.43;2.47;;;;;;;;;;6276460;22;20069;-72
2022/09/07 12:13:26;;;;;;;7.40;2.40;;;;;;;;;;6276513;22;20457;-72
2022/09/07 12:16:11;;;;;;;6.47;2.25;;;;;;;;;;6276918;22;20024;-72
2022/09/07 12:18:49;;;;;;;5.28;2.60;;;;;;;;;;6276396;22;20472;-73
2022/09/07 12:21:34;;;;;;;8.65;2.30;;;;;;;;;;6276315;22;20316;-72
2022/09/07 12:24:00;;;;;;;8.23;2.55;;;;;;;;;;6276902;22;20007;-76
2022/09/07 12:26:33;;;;;;;9.52;3.45;;;;;;;;;;6276482;22;20115;-72
2022/09/07 12:28:59;;;;;;;7.85;2.20;;;;;;;;;;6276209;22;20095;-72
2022/09/07 12:31:43;;;;;;;6.57;2.42;;;;;;;;;;6275806;22;20020;-72
2022/09/07 12:34:28;;;;;;;5.90;2.42;;;;;;;;;;6276356;22;20007;-72
2022/09/07 12:36:54;;;;;;;3.90;2.10;;;;;;;;;;6275519;22;20050;-72
2022/09/07 12:39:27;;;;;;;5.22;2.47;;;;;;;;;;6275566;22;19995;-72
2022/09/07 12:42:13;;;;;;;7.80;2.58;;;;;;;;;;6276671;22;20008;-72
2022/09/07 12:44:39;;;;;;;5.95;2.42;;;;;;;;;;6277578;22;20039;-72
2022/09/07 12:47:11;;;;;;;8.35;1.98;;;;;;;;;;6278507;22;19999;-72
2022/09/07 12:49:42;;;;;;;7.75;2.20;;;;;;;;;;6277987;22;20011;-77
2022/09/07 12:52:26;;;;;;;5.47;2.53;;;;;;;;;;6278071;22;20067;-73
2022/09/07 12:55:04;;;;;;;7.55;2.53;;;;;;;;;;6278276;22;20057;-72
2022/09/07 12:57:30;;;;;;;4.40;2.10;;;;;;;;;;6278215;22;20004;-70
2022/09/07 13:00:06;;;;;;;4.90;1.80;;;;;;;;;;6278379;22;20404;-73
2022/09/07 13:02:32;;;;;;;5.38;1.80;;;;;;;;;;6278311;22;20022;-72
2022/09/07 13:05:10;;;;;;;3.75;1.73;;;;;;;;;;6278360;22;20034;-73
2022/09/07 13:07:55;;;;;;;4.03;1.75;;;;;;;;;;6278202;22;20012;-72
2022/09/07 13:10:41;;;;;;;4.07;1.73;;;;;;;;;;6278342;22;20004;-72
2022/09/07 13:13:13;;;;;;;5.30;2.03;;;;;;;;;;6277325;22;20333;-72
2022/09/07 13:15:39;;;;;;;4.25;2.13;;;;;;;;;;6278390;22;20012;-70
2022/09/07 13:18:11;;;;;;;4.13;1.90;;;;;;;;;;6278057;22;20007;-79
2022/09/07 13:20:38;;;;;;;8.55;2.30;;;;;;;;;;6278143;22;20014;-71
2022/09/07 13:23:09;;;;;;;7.15;1.80;;;;;;;;;;6278220;22;20418;-73
2022/09/07 13:25:44;;;;;;;5.75;1.88;;;;;;;;;;6278036;22;20000;-73
2022/09/07 13:28:19;;;;;;;7.88;1.80;;;;;;;;;;6277864;22;20073;-73
2022/09/07 13:30:59;;;;;;;3.13;1.67;;;;;;;;;;6278092;22;20004;-79
2022/09/07 13:33:25;;;;;;;4.40;1.70;;;;;;;;;;6277609;22;19996;-73
2022/09/07 13:35:54;;;;;;;5.70;1.55;;;;;;;;;;6278122;22;20007;-73
2022/09/07 13:38:20;;;;;;;10.82;1.88;;;;;;;;;;6277912;22;20083;-73
2022/09/07 13:40:47;;;;;;;6.55;2.10;;;;;;;;;;6277963;22;20318;-73
2022/09/07 13:43:16;;;;;;;6.00;1.70;;;;;;;;;;6277762;22;20000;-76
2022/09/07 13:45:44;;;;;;;5.10;1.52;;;;;;;;;;6277483;22;20000;-73
2022/09/07 13:48:25;;;;;;;3.30;1.50;;;;;;;;;;6277764;22;20016;-73
2022/09/07 13:51:08;;;;;;;4.57;1.70;;;;;;;;;;6277858;22;20453;-72
2022/09/07 13:53:43;;;;;;;4.43;1.73;;;;;;;;;;6277623;22;20222;-72
2022/09/07 13:56:12;;;;;;;6.00;1.52;;;;;;;;;;6277197;22;20007;-74
2022/09/07 13:58:45;;;;;;;4.60;1.50;;;25.60;73.40;;;;;;6277581;22;20000;-73
2022/09/07 14:01:17;;;;;;;7.78;1.52;;;27.60;57.90;;;;;;6277906;22;20053;-73
2022/09/07 14:03:51;;;;;;;5.95;1.73;;;27.60;56.90;;;;;;6278146;22;20008;-73
2022/09/07 14:06:19;;;;;;;3.45;1.42;;;27.60;57.30;;;;;;6277748;22;20031;-72
2022/09/07 14:08:54;;;;;;;8.55;1.90;;;27.70;56.50;;;;;;6277327;22;20047;-73
2022/09/07 14:11:23;;;;;;;2.17;1.35;;;27.70;55.70;;;;;;6277638;22;19996;-75
2022/09/07 14:14:24;;;;;;;4.05;1.30;;;27.70;56.20;;;;;;6277222;22;20445;-73
2022/09/07 14:16:58;;;;;;;5.97;1.60;;;27.70;56.30;;;;;;6276785;22;20023;-73
2022/09/07 14:19:38;;;;;;;5.07;1.50;;;27.70;56.80;;;;;;6276952;22;20046;-73
2022/09/07 14:22:10;;;;;;;4.80;1.45;;;27.70;56.00;;;;;;6277353;22;20087;-72
2022/09/07 14:24:55;;;;;;;;;;;27.80;55.80;;;;;;6277787;22;20000;-73
2022/09/07 14:27:24;;;;;;;5.35;1.70;;;27.80;55.50;;;;;;6276427;22;19978;-72
2022/09/07 14:29:50;;;;;;;3.97;1.50;;;27.80;55.90;;;;;;6277523;22;20376;-72
2022/09/07 14:32:21;;;;;;;6.47;1.80;;;27.70;55.90;;;;;;6277748;22;20004;-72
2022/09/07 14:34:47;;;;;;;8.20;2.10;;;27.70;55.60;;;;;;6250032;22;20365;-73
2022/09/07 14:37:15;;;;;;;4.03;1.60;;;27.70;55.70;;;;;;6277357;22;20427;-76
2022/09/07 14:39:43;;;;;;;5.75;1.63;;;27.70;56.10;;;;;;6277098;22;19999;-72
2022/09/07 14:42:16;;;;;;;5.53;1.50;;;27.70;56.40;;;;;;6277497;22;19996;-73
2022/09/07 14:44:42;;;;;;;9.20;2.30;;;27.70;56.90;;;;;;6277493;22;20000;-73
2022/09/07 14:47:22;;;;;;;6.47;1.67;;;27.70;56.70;;;;;;6276702;22;20014;-72
2022/09/07 14:49:52;;;;;;;6.60;2.63;;;27.70;56.80;;;;;;6277308;22;20058;-73
2022/09/07 14:52:40;;;;;;;8.20;2.28;;;27.70;56.60;;;;;;6277206;22;20023;-72
2022/09/07 14:55:21;;;;;;;4.45;1.77;;;27.70;56.00;;;;;;6276539;22;20018;-73
2022/09/07 14:57:47;;;;;;;8.40;1.65;;;27.70;56.20;;;;;;6278061;22;20018;-73
2022/09/07 15:00:30;;;;;;;5.03;1.80;;;27.80;56.70;;;;;;6277053;22;20410;-72
2022/09/07 15:02:56;;;;;;;4.68;1.77;;;27.80;56.70;;;;;;6277483;22;20035;-73
2022/09/07 15:05:27;;;;;;;8.02;1.90;;;27.80;56.60;;;;;;6277290;22;20053;-73
2022/09/07 15:07:53;;;;;;;11.35;1.77;;;27.80;56.50;;;;;;6276842;22;20012;-72
2022/09/07 15:10:19;;;;;;;5.28;1.60;;;27.80;56.30;;;;;;6277389;22;20082;-72